Time;durP1;ratioP1;P1;durP2;ratioP2;P2;SDS_P1;SDS_P2;PMS_P1;PMS_P2;Temp;Humidity;BMP_temperature;BMP_pressure;BME280_temperature;BME280_humidity;BME280_pressure;Samples;Min_cycle;Max_cycle;Signal;HPM_P1;HPM_P2
2022/03/11 00:02:22;;;;;;;;;;;5.70;99.90;;;;;;5151024;27;19923;-69
2022/03/11 00:04:48;;;;;;;;;;;5.90;99.90;;;;;;5134957;27;19930;-69
2022/03/11 00:07:32;;;;;;;;;;;5.70;99.90;;;;;;5151189;27;19932;-71
2022/03/11 00:09:57;;;;;;;;;;;5.90;99.90;;;;;;5116752;27;19927;-69
2022/03/11 00:12:24;;;;;;;;;;;5.60;99.90;;;;;;5151265;27;19933;-69
2022/03/11 00:14:50;;;;;;;;;;;5.60;99.90;;;;;;5134588;27;19977;-72
2022/03/11 00:17:16;;;;;;;;;;;5.60;99.90;;;;;;5134819;27;19963;-69
2022/03/11 00:19:41;;;;;;;;;;;5.60;99.90;;;;;;5126590;27;20406;-70
2022/03/11 00:22:07;;;;;;;;;;;5.50;99.90;;;;;;5092167;28;19931;-72
2022/03/11 00:24:32;;;;;;;;;;;5.50;99.90;;;;;;5133888;27;19949;-72
2022/03/11 00:26:58;;;;;;;;;;;5.50;99.90;;;;;;5099373;28;20278;-71
2022/03/11 00:29:24;;;;;;;;;;;5.40;99.90;;;;;;5116496;28;20431;-72
2022/03/11 00:31:50;;;;;;;;;;;5.70;99.90;;;;;;5116557;28;19945;-71
2022/03/11 00:34:15;;;;;;;;;;;5.40;99.90;;;;;;5134740;28;20347;-72
2022/03/11 00:36:43;;;;;;;;;;;5.40;99.90;;;;;;5153736;27;19924;-69
2022/03/11 00:39:09;;;;;;;;;;;5.30;99.90;;;;;;5120726;27;20022;-68
2022/03/11 00:41:34;;;;;;;;;;;5.30;99.90;;;;;;5138800;27;19970;-69
2022/03/11 00:44:00;;;;;;;;;;;5.60;99.90;;;;;;5138748;27;19927;-69
2022/03/11 00:46:25;;;;;;;;;;;5.60;99.90;;;;;;5138637;27;20371;-69
2022/03/11 00:48:51;;;;;;;;;;;5.20;99.90;;;;;;5138849;27;19923;-71
2022/03/11 00:51:16;;;;;;;;;;;5.20;99.90;;;;;;5138836;27;20382;-70
2022/03/11 00:53:42;;;;;;;;;;;5.20;99.90;;;;;;5154726;27;19966;-69
2022/03/11 00:56:07;;;;;;;;;;;5.20;99.90;;;;;;5154918;27;19924;-69
2022/03/11 00:58:33;;;;;;;;;;;5.50;99.90;;;;;;5154855;27;20259;-69
2022/03/11 01:00:59;;;;;;;;;;;5.60;99.90;;;;;;5138297;27;19931;-72
2022/03/11 01:03:24;;;;;;;;;;;6.00;99.90;;;;;;5138460;27;19923;-69
2022/03/11 01:05:50;;;;;;;;;;;4.40;99.90;;;;;;5138461;27;19924;-74
2022/03/11 01:08:15;;;;;;;;;;;5.10;99.90;;;;;;5154779;27;19975;-69
2022/03/11 01:10:41;;;;;;;;;;;5.40;99.90;;;;;;5138286;27;19923;-69
2022/03/11 01:13:07;;;;;;;;;;;6.20;99.90;;;;;;5138204;27;19968;-73
2022/03/11 01:15:32;;;;;;;;;;;5.90;99.90;;;;;;5119521;27;19934;-72
2022/03/11 01:17:58;;;;;;;;;;;5.00;99.90;;;;;;5137862;27;19924;-68
2022/03/11 01:20:23;;;;;;;;;;;5.30;99.90;;;;;;5144293;27;19982;-69
2022/03/11 01:22:49;;;;;;;;;;;5.00;99.90;;;;;;5117615;28;19931;-69
2022/03/11 01:25:15;;;;;;;;;;;4.90;99.90;;;;;;5117332;28;19970;-69
2022/03/11 01:27:40;;;;;;;;;;;6.20;99.90;;;;;;5099246;28;19948;-69
2022/03/11 01:30:07;;;;;;;;;;;4.90;99.90;;;;;;5117215;28;19928;-69
2022/03/11 01:32:32;;;;;;;;;;;4.90;99.90;;;;;;5117090;28;20405;-69
2022/03/11 01:34:58;;;;;;;;;;;4.80;99.90;;;;;;5117373;28;19981;-71
2022/03/11 01:37:24;;;;;;;;;;;4.80;99.90;;;;;;5117383;28;20322;-69
2022/03/11 01:39:49;;;;;;;;;;;5.20;99.90;;;;;;5099274;28;19930;-69
2022/03/11 01:42:15;;;;;;;;;;;4.90;99.90;;;;;;5117105;28;20020;-70
2022/03/11 01:44:41;;;;;;;;;;;5.10;99.90;;;;;;5098565;28;19924;-69
2022/03/11 01:47:07;;;;;;;;;;;4.70;99.90;;;;;;5098866;28;20026;-69
2022/03/11 01:49:33;;;;;;;;;;;5.10;99.90;;;;;;5116946;28;20291;-71
2022/03/11 01:51:58;;;;;;;;;;;5.10;99.90;;;;;;5116944;28;19969;-72
2022/03/11 01:54:24;;;;;;;;;;;4.60;99.90;;;;;;5098668;28;20461;-72
2022/03/11 01:56:50;;;;;;;;;;;4.80;99.90;;;;;;5116884;28;19985;-68
2022/03/11 01:59:16;;;;;;;;;;;4.60;99.90;;;;;;5116667;28;19931;-69
2022/03/11 02:01:42;;;;;;;;;;;5.20;99.90;;;;;;5098577;28;19928;-70
2022/03/11 02:04:07;;;;;;;;;;;4.80;99.90;;;;;;5098419;28;20022;-69
2022/03/11 02:06:33;;;;;;;;;;;5.00;99.90;;;;;;5116721;28;19982;-68
2022/03/11 02:09:00;;;;;;;;;;;4.50;99.90;;;;;;5098776;28;19923;-69
2022/03/11 02:11:25;;;;;;;;;;;5.30;99.90;;;;;;5116586;28;19997;-69
2022/03/11 02:13:52;;;;;;;;;;;4.50;99.90;;;;;;5116480;28;20393;-68
2022/03/11 02:16:19;;;;;;;;;;;4.40;99.90;;;;;;5116267;28;19976;-73
2022/03/11 02:18:45;;;;;;;;;;;4.40;99.90;;;;;;5098045;28;19931;-69
2022/03/11 02:21:11;;;;;;;;;;;4.40;99.90;;;;;;5116655;28;19923;-68
2022/03/11 02:23:50;;;;;;;;;;;5.60;99.90;;;;;;5116295;28;19924;-68
2022/03/11 02:26:16;;;;;;;;;;;4.30;99.90;;;;;;5097768;28;20011;-69
2022/03/11 02:28:43;;;;;;;;;;;4.80;99.90;;;;;;5097797;28;19927;-70
2022/03/11 02:31:08;;;;;;;;;;;4.30;99.90;;;;;;5097996;28;20393;-70
2022/03/11 02:33:34;;;;;;;;;;;4.80;99.90;;;;;;5098446;28;19924;-69
2022/03/11 02:36:00;;;;;;;;;;;4.20;99.90;;;;;;5116269;28;19923;-69
2022/03/11 02:38:26;;;;;;;;;;;5.00;99.90;;;;;;5115977;28;19923;-69
2022/03/11 02:40:51;;;;;;;;;;;4.50;99.90;;;;;;5097901;28;19967;-68
2022/03/11 02:43:17;;;;;;;;;;;5.20;99.90;;;;;;5097843;28;19978;-70
2022/03/11 02:45:42;;;;;;;;;;;4.10;99.90;;;;;;5115788;28;19924;-70
2022/03/11 02:48:08;;;;;;;;;;;4.10;99.90;;;;;;5115579;28;19924;-68
2022/03/11 02:50:34;;;;;;;;;;;4.10;99.90;;;;;;5097898;28;19971;-72
2022/03/11 02:52:59;;;;;;;;;;;4.50;99.90;;;;;;5097380;28;19924;-71
2022/03/11 02:55:25;;;;;;;;;;;4.70;99.90;;;;;;5115731;28;19931;-71
2022/03/11 02:57:50;;;;;;;;;;;4.00;99.90;;;;;;5131769;27;19924;-71
2022/03/11 03:00:16;;;;;;;;;;;5.30;99.90;;;;;;5115179;28;19924;-70
2022/03/11 03:02:42;;;;;;;;;;;4.00;99.90;;;;;;5115513;28;19928;-69
2022/03/11 03:05:07;;;;;;;;;;;4.90;99.90;;;;;;5115250;28;20287;-69
2022/03/11 03:07:33;;;;;;;;;;;3.90;99.90;;;;;;5097406;28;19924;-68
2022/03/11 03:09:59;;;;;;;;;;;3.90;99.90;;;;;;5115458;28;19923;-68
2022/03/11 03:12:25;;;;;;;;;;;3.80;99.90;;;;;;5115389;28;19923;-68
2022/03/11 03:14:50;;;;;;;;;;;4.30;99.90;;;;;;5097231;28;19924;-68
2022/03/11 03:17:18;;;;;;;;;;;4.40;99.90;;;;;;5115099;28;20405;-69
2022/03/11 03:19:44;;;;;;;;;;;3.40;99.90;;;;;;5115016;28;19934;-68
2022/03/11 03:22:09;;;;;;;;;;;3.70;99.90;;;;;;5115266;28;20014;-73
2022/03/11 03:24:35;;;;;;;;;;;5.40;99.90;;;;;;5115118;28;19924;-71
2022/03/11 03:27:02;;;;;;;;;;;5.10;99.90;;;;;;5115122;28;20432;-70
2022/03/11 03:29:27;;;;;;;;;;;4.80;99.90;;;;;;5096723;28;19924;-68
2022/03/11 03:31:57;;;;;;;;;;;3.60;99.90;;;;;;5114920;28;19931;-68
2022/03/11 03:34:30;;;;;;;;;;;3.60;99.90;;;;;;5096829;28;19938;-69
2022/03/11 03:36:56;;;;;;;;;;;3.60;99.90;;;;;;5097125;28;19924;-69
2022/03/11 03:39:22;;;;;;;;;;;3.50;99.90;;;;;;5096631;28;20335;-68
2022/03/11 03:41:47;;;;;;;;;;;3.60;99.90;;;;;;5096992;28;19993;-71
2022/03/11 03:44:13;;;;;;;;;;;4.50;99.90;;;;;;5114716;28;20290;-71
2022/03/11 03:46:38;;;;;;;;;;;5.40;99.90;;;;;;5114759;28;19977;-71
2022/03/11 03:49:04;;;;;;;;;;;3.00;99.90;;;;;;5114545;28;19971;-70
2022/03/11 03:51:29;;;;;;;;;;;3.40;99.90;;;;;;5114829;28;19924;-68
2022/03/11 03:53:55;;;;;;;;;;;4.80;99.90;;;;;;5114643;28;19931;-68
2022/03/11 03:56:20;;;;;;;;;;;4.30;99.90;;;;;;5096728;28;19982;-69
2022/03/11 03:58:46;;;;;;;;;;;3.80;99.90;;;;;;5096586;28;19959;-69
2022/03/11 04:01:11;;;;;;;;;;;3.30;99.90;;;;;;5114539;28;19928;-73
2022/03/11 04:03:37;;;;;;;;;;;3.20;99.90;;;;;;5096178;28;19931;-73
2022/03/11 04:06:02;;;;;;;;;;;3.00;99.90;;;;;;5096639;28;20406;-69
2022/03/11 04:08:30;;;;;;;;;;;3.20;99.90;;;;;;5096264;28;20294;-69
2022/03/11 04:10:55;;;;;;;;;;;3.40;99.90;;;;;;5113768;28;19924;-70
2022/03/11 04:13:21;;;;;;;;;;;3.40;99.90;;;;;;5096540;28;19928;-72
2022/03/11 04:15:46;;;;;;;;;;;3.80;99.90;;;;;;5081658;28;20383;-72
2022/03/11 04:18:12;;;;;;;;;;;3.60;99.90;;;;;;5093711;28;19974;-70
2022/03/11 04:20:37;;;;;;;;;;;3.10;99.90;;;;;;5094034;28;19974;-70
2022/03/11 04:23:03;;;;;;;;;;;3.10;99.90;;;;;;5093903;28;19931;-68
2022/03/11 04:25:29;;;;;;;;;;;3.10;99.90;;;;;;5075710;28;19924;-68
2022/03/11 04:27:54;;;;;;;;;;;3.50;99.90;;;;;;5075780;28;19924;-73
2022/03/11 04:30:20;;;;;;;;;;;3.70;99.90;;;;;;5075723;28;20011;-72
2022/03/11 04:32:45;;;;;;;;;;;3.00;99.90;;;;;;5075912;28;19973;-68
2022/03/11 04:35:11;;;;;;;;;;;3.90;99.90;;;;;;5093618;28;19924;-71
2022/03/11 04:37:36;;;;;;;;;;;3.00;99.90;;;;;;5093994;28;19932;-70
2022/03/11 04:40:03;;;;;;;;;;;3.70;99.90;;;;;;5093589;28;19928;-68
2022/03/11 04:42:28;;;;;;;;;;;2.90;99.90;;;;;;5093658;28;19924;-73
2022/03/11 04:44:54;;;;;;;;;;;3.00;99.90;;;;;;5093557;28;20019;-68
2022/03/11 04:47:20;;;;;;;;;;;4.40;99.90;;;;;;5075440;28;19924;-72
2022/03/11 04:49:45;;;;;;;;;;;2.80;99.90;;;;;;5093450;28;19924;-73
2022/03/11 04:52:11;;;;;;;;;;;4.50;99.90;;;;;;5075721;28;20315;-68
2022/03/11 04:54:36;;;;;;;;;;;2.80;99.90;;;;;;5075759;28;19928;-71
2022/03/11 04:57:02;;;;;;;;;;;2.80;99.90;;;;;;5093724;28;19982;-68
2022/03/11 04:59:28;;;;;;;;;;;2.70;99.90;;;;;;5075673;28;19924;-68
2022/03/11 05:01:53;;;;;;;;;;;3.10;99.90;;;;;;5075846;28;19924;-68
2022/03/11 05:04:19;;;;;;;;;;;2.70;99.90;;;;;;5075466;28;19924;-68
2022/03/11 05:06:45;;;;;;;;;;;3.40;99.90;;;;;;5093342;28;20390;-69
2022/03/11 05:09:10;;;;;;;;;;;2.60;99.90;;;;;;5075720;28;20284;-71
2022/03/11 05:11:37;;;;;;;;;;;2.60;99.90;;;;;;5075705;28;19924;-68
2022/03/11 05:14:03;;;;;;;;;;;3.60;99.90;;;;;;5093175;28;20011;-71
2022/03/11 05:16:28;;;;;;;;;;;3.40;99.90;;;;;;5095408;28;19971;-68
2022/03/11 05:18:54;;;;;;;;;;;1.20;99.90;;;;;;5075313;28;20425;-68
2022/03/11 05:21:20;;;;;;;;;;;3.40;99.90;;;;;;5093791;28;19931;-73
2022/03/11 05:23:46;;;;;;;;;;;3.50;99.90;;;;;;5079141;28;20564;-68
2022/03/11 05:26:24;;;;;;;;;;;2.50;99.90;;;;;;5097052;28;19924;-68
2022/03/11 05:28:51;;;;;;;;;;;2.80;99.90;;;;;;5096903;28;20387;-68
2022/03/11 05:31:16;;;;;;;;;;;3.00;99.90;;;;;;5078823;28;19973;-68
2022/03/11 05:33:42;;;;;;;;;;;3.00;99.90;;;;;;5096902;28;20007;-69
2022/03/11 05:36:08;;;;;;;;;;;2.00;99.90;;;;;;5075589;28;19931;-68
2022/03/11 05:38:33;;;;;;;;;;;2.40;99.90;;;;;;5112710;28;19931;-69
2022/03/11 05:40:59;;;;;;;;;;;2.40;99.90;;;;;;5078710;28;19932;-74
2022/03/11 05:43:24;;;;;;;;;;;3.00;99.90;;;;;;5078774;28;19930;-68
2022/03/11 05:45:50;;;;;;;;;;;3.40;99.90;;;;;;5078763;28;20421;-69
2022/03/11 05:48:15;;;;;;;;;;;2.30;99.90;;;;;;5096631;28;20030;-71
2022/03/11 05:50:41;;;;;;;;;;;2.30;99.90;;;;;;5096710;28;19971;-68
2022/03/11 05:53:07;;;;;;;;;;;3.00;99.90;;;;;;5096770;28;19970;-68
2022/03/11 05:55:32;;;;;;;;;;;2.30;99.90;;;;;;5096399;28;19928;-68
2022/03/11 05:57:58;;;;;;;;;;;3.20;99.90;;;;;;5096595;28;19924;-67
2022/03/11 06:00:23;;;;;;;;;;;2.30;99.90;;;;;;5096355;28;20386;-68
2022/03/11 06:02:49;;;;;;;;;;;2.70;99.90;;;;;;5096315;28;20295;-68
2022/03/11 06:05:15;;;;;;;;;;;2.40;99.90;;;;;;5078109;28;19994;-69
2022/03/11 06:07:41;;;;;;;;;;;1.50;99.90;;;;;;5096093;28;20409;-69
2022/03/11 06:10:07;;;;;;;;;;;3.30;99.90;;;;;;5078224;28;19924;-68
2022/03/11 06:12:33;;;;;;;;;;;1.90;99.90;;;;;;5096180;28;20306;-68
2022/03/11 06:14:58;;;;;;;;;;;2.20;99.90;;;;;;5083577;28;19923;-69
2022/03/11 06:17:24;;;;;;;;;;;2.50;99.90;;;;;;5135175;27;19930;-68
2022/03/11 06:19:50;;;;;;;;;;;4.00;99.90;;;;;;5136987;27;20342;-68
2022/03/11 06:22:15;;;;;;;;;;;2.10;99.90;;;;;;5136814;27;20014;-68
2022/03/11 06:24:42;;;;;;;;;;;2.10;99.90;;;;;;5153177;27;19923;-70
2022/03/11 06:27:07;;;;;;;;;;;4.00;99.90;;;;;;5136701;27;20386;-69
2022/03/11 06:29:33;;;;;;;;;;;2.70;99.90;;;;;;5118807;27;19930;-68
2022/03/11 06:31:58;;;;;;;;;;;3.30;99.90;;;;;;5153187;27;19924;-69
2022/03/11 06:34:24;;;;;;;;;;;3.20;99.90;;;;;;5117603;27;19924;-69
2022/03/11 06:36:50;;;;;;;;;;;2.80;99.90;;;;;;5152566;27;19976;-69
2022/03/11 06:39:15;;;;;;;;;;;3.70;99.90;;;;;;5118062;27;20010;-68
2022/03/11 06:41:41;;;;;;;;;;;3.00;99.90;;;;;;5136926;27;20022;-68
2022/03/11 06:44:07;;;;;;;;;;;2.60;99.90;;;;;;5136574;27;19968;-68
2022/03/11 06:46:33;;;;;;;;;;;2.60;99.90;;;;;;5118188;27;19924;-69
2022/03/11 06:48:58;;;;;;;;;;;3.50;99.90;;;;;;5152631;27;19924;-68
2022/03/11 06:51:24;;;;;;;;;;;2.30;99.90;;;;;;5118137;27;19924;-68
2022/03/11 06:53:49;;;;;;;;;;;3.10;99.90;;;;;;5136116;27;19924;-70
2022/03/11 06:56:15;;;;;;;;;;;3.20;99.90;;;;;;5152454;27;19924;-68
2022/03/11 06:58:41;;;;;;;;;;;3.70;99.90;;;;;;5136405;27;19981;-69
2022/03/11 07:01:06;;;;;;;;;;;3.10;99.90;;;;;;5136165;27;20387;-68
2022/03/11 07:03:32;;;;;;;;;;;2.40;99.90;;;;;;5135880;27;19972;-72
2022/03/11 07:05:57;;;;;;;;;;;3.60;99.90;;;;;;5136063;27;19924;-70
2022/03/11 07:08:23;;;;;;;;;;;3.80;99.90;;;;;;5117868;27;19923;-71
2022/03/11 07:10:49;;;;;;;;;;;2.50;99.90;;;;;;5152429;27;20374;-68
2022/03/11 07:13:15;;;;;;;;;;;2.50;99.90;;;;;;5136099;27;19930;-70
2022/03/11 07:15:40;;;;;;;;;;;2.60;99.90;;;;;;5135804;27;20285;-71
2022/03/11 07:18:06;;;;;;;;;;;2.60;99.90;;;;;;5135693;27;19968;-72
2022/03/11 07:20:31;;;;;;;;;;;3.20;99.90;;;;;;5135966;27;20030;-69
2022/03/11 07:22:57;;;;;;;;;;;2.70;99.90;;;;;;5151946;27;19929;-69
2022/03/11 07:25:22;;;;;;;;;;;2.70;99.90;;;;;;5151434;27;19931;-68
2022/03/11 07:27:48;;;;;;;;;;;4.10;99.90;;;;;;5135800;27;19927;-71
2022/03/11 07:30:14;;;;;;;;;;;3.70;99.90;;;;;;5135691;27;19924;-68
2022/03/11 07:32:40;;;;;;;;;;;3.90;99.90;;;;;;5135513;27;19924;-68
2022/03/11 07:35:08;;;;;;;;;;;4.10;99.90;;;;;;5135553;27;19923;-70
2022/03/11 07:37:35;;;;;;;;;;;3.00;99.90;;;;;;5117398;27;19956;-68
2022/03/11 07:40:01;;;;;;;;;;;3.00;99.90;;;;;;5135232;27;19980;-68
2022/03/11 07:42:26;;;;;;;;;;;4.20;99.90;;;;;;5135406;27;19970;-68
2022/03/11 07:44:52;;;;;;;;;;;3.50;99.90;;;;;;5135224;27;19927;-70
2022/03/11 07:47:17;;;;;;;;;;;3.30;99.90;;;;;;5151684;27;19931;-71
2022/03/11 07:49:43;;;;;;;;;;;4.30;99.90;;;;;;5151468;27;19958;-69
2022/03/11 07:52:14;;;;;;;;;;;3.30;99.90;;;;;;5135232;27;19929;-68
2022/03/11 07:54:40;;;;;;;;;;;4.20;99.90;;;;;;5151305;27;20331;-70
2022/03/11 07:57:06;;;;;;;;;;;3.40;99.90;;;;;;5135204;27;19976;-72
2022/03/11 07:59:33;;;;;;;;;;;3.50;99.90;;;;;;5151546;27;19972;-68
2022/03/11 08:01:59;;;;;;;;;;;4.00;99.90;;;;;;5117021;27;20382;-70
2022/03/11 08:04:25;;;;;;;;;;;3.80;99.90;;;;;;5116747;27;20348;-71
2022/03/11 08:06:51;;;;;;;;;;;4.10;99.90;;;;;;5135006;27;19924;-69
2022/03/11 08:09:16;;;;;;;;;;;3.70;99.90;;;;;;5134777;27;19923;-70
2022/03/11 08:11:42;;;;;;;;;;;4.90;99.90;;;;;;5151241;27;19975;-68
2022/03/11 08:14:08;;;;;;;;;;;4.20;99.90;;;;;;5134955;27;19923;-71
2022/03/11 08:16:33;;;;;;;;;;;4.40;99.90;;;;;;5134937;27;20346;-68
2022/03/11 08:18:59;;;;;;;;;;;4.00;99.90;;;;;;5134734;27;19923;-69
2022/03/11 08:21:25;;;;;;;;;;;4.50;99.90;;;;;;5150967;27;19923;-69
2022/03/11 08:23:50;;;;;;;;;;;4.40;99.90;;;;;;5150886;27;20374;-69
2022/03/11 08:26:17;;;;;;;;;;;4.20;99.90;;;;;;5134638;27;20023;-69
2022/03/11 08:28:43;;;;;;;;;;;4.20;99.90;;;;;;5151211;27;19928;-68
2022/03/11 08:31:08;;;;;;;;;;;5.00;99.90;;;;;;5151082;27;19947;-71
2022/03/11 08:33:37;;;;;;;;;;;5.40;99.90;;;;;;5134744;28;19930;-68
2022/03/11 08:36:02;;;;;;;;;;;5.80;99.90;;;;;;5150971;27;20382;-69
2022/03/11 08:38:28;;;;;;;;;;;4.50;99.90;;;;;;5134557;28;19923;-68
2022/03/11 08:40:53;;;;;;;;;;;6.00;99.90;;;;;;5134458;28;20018;-71
2022/03/11 08:43:19;;;;;;;;;;;4.70;99.90;;;;;;5150985;27;20367;-68
2022/03/11 08:45:45;;;;;;;;;;;5.30;99.90;;;;;;5134696;28;19949;-72
2022/03/11 08:48:10;;;;;;;;;;;4.70;99.90;;;;;;5134681;28;19978;-68
2022/03/11 08:50:36;;;;;;;;;;;4.50;99.90;;;;;;5134781;28;20374;-68
2022/03/11 08:53:02;;;;;;;;;;;5.70;99.90;;;;;;5116450;28;20017;-69
2022/03/11 08:55:27;;;;;;;;;;;5.00;99.90;;;;;;5134256;28;20374;-70
2022/03/11 08:57:53;;;;;;;;;;;5.00;99.90;;;;;;5119289;27;19924;-72
2022/03/11 09:00:19;;;;;;;;;;;5.00;99.90;;;;;;5138698;27;19924;-72
2022/03/11 09:02:45;;;;;;;;;;;5.10;99.90;;;;;;5138572;27;19923;-69
2022/03/11 09:05:11;;;;;;;;;;;5.20;99.90;;;;;;5120080;27;19923;-70
2022/03/11 09:07:37;;;;;;;;;;;5.20;99.90;;;;;;5138408;27;19968;-69
2022/03/11 09:10:03;;;;;;;;;;;5.30;99.90;;;;;;5138192;27;20025;-67
2022/03/11 09:12:29;;;;;;;;;;;5.30;99.20;;;;;;5119796;27;20394;-70
2022/03/11 09:14:55;;;;;;;;;;;5.30;99.50;;;;;;5154557;27;19923;-68
2022/03/11 09:17:21;;;;;;;;;;;5.40;99.90;;;;;;5120172;27;19976;-69
2022/03/11 09:19:46;;;;;;;;;;;5.70;99.80;;;;;;5128396;27;19977;-72
2022/03/11 09:22:12;;;;;;;;;;;5.60;97.90;;;;;;5130949;27;19934;-69
2022/03/11 09:24:40;;;;;;;;;;;5.60;95.50;;;;;;5137960;27;19923;-69
2022/03/11 09:27:06;;;;;;;;;;;5.70;94.20;;;;;;5137867;27;20315;-68
2022/03/11 09:29:31;;;;;;;;;;;5.90;91.50;;;;;;5138098;27;19965;-68
2022/03/11 09:31:57;;;;;;;;;;;6.00;90.30;;;;;;5138029;27;20006;-69
2022/03/11 09:34:23;;;;;;;;;;;5.90;86.30;;;;;;5138116;27;19924;-68
2022/03/11 09:36:52;;;;;;;;;;;5.90;84.00;;;;;;5137919;27;19930;-69
2022/03/11 09:39:18;;;;;;;;;;;6.70;79.30;;;;;;5137691;27;19923;-69
2022/03/11 09:41:44;;;;;;;;;;;6.00;78.20;;;;;;5137723;27;20382;-70
2022/03/11 09:44:12;;;;;;;;;;;6.10;79.90;;;;;;5119630;27;19976;-69
2022/03/11 09:46:39;;;;;;;;;;;6.10;78.60;;;;;;5137764;27;19924;-68
2022/03/11 09:49:05;;;;;;;;;;;6.20;74.40;;;;;;5119611;27;19927;-68
2022/03/11 09:51:32;;;;;;;;;;;6.30;78.10;;;;;;5137437;27;19923;-68
2022/03/11 09:53:58;;;;;;;;;;;6.40;75.60;;;;;;5137395;27;19930;-71
2022/03/11 09:56:24;;;;;;;;;;;7.40;75.50;;;;;;5119046;27;19923;-69
2022/03/11 09:58:49;;;;;;;;;;;6.50;74.70;;;;;;5137634;27;19975;-69
2022/03/11 10:01:15;;;;;;;;;;;6.80;73.70;;;;;;5137666;27;19924;-69
2022/03/11 10:03:41;;;;;;;;;;;6.70;72.00;;;;;;5153123;27;19923;-70
2022/03/11 10:06:06;;;;;;;;;;;6.70;72.40;;;;;;5137326;27;20375;-68
2022/03/11 10:08:36;;;;;;;;;;;7.20;68.90;;;;;;5135694;27;19934;-69
2022/03/11 10:11:22;;;;;;;;;;;6.90;67.40;;;;;;5153538;27;20060;-69
2022/03/11 10:13:48;;;;;;;;;;;6.90;65.40;;;;;;5119229;27;20310;-69
2022/03/11 10:16:24;;;;;;;;;;;7.00;64.60;;;;;;5118706;27;19924;-70
2022/03/11 10:18:53;;;;;;;;;;;7.00;66.00;;;;;;5137048;27;19923;-68
2022/03/11 10:21:19;;;;;;;;;;;7.00;68.00;;;;;;5136885;27;20400;-68
2022/03/11 10:23:48;;;;;;;;;;;7.30;67.80;;;;;;5136649;27;20021;-70
2022/03/11 10:26:28;;;;;;;;;;;7.20;66.00;;;;;;5118795;27;19924;-70
2022/03/11 10:29:00;;;;;;;;;;;7.90;63.90;;;;;;5137001;27;20032;-70
2022/03/11 10:31:30;;;;;;;;;;;7.30;65.60;;;;;;5118724;27;19924;-69
2022/03/11 10:34:13;;;;;;;;;;;7.50;66.00;;;;;;5136682;27;19930;-70
2022/03/11 10:36:50;;;;;;;;;;;7.50;64.30;;;;;;5136838;27;20393;-69
2022/03/11 10:39:15;;;;;;;;;;;7.70;65.50;;;;;;5136590;27;19929;-70
2022/03/11 10:41:41;;;;;;;;;;;7.70;62.70;;;;;;5153026;27;19923;-69
2022/03/11 10:44:09;;;;;;;;;;;8.40;63.60;;;;;;5136372;27;19968;-69
2022/03/11 10:46:35;;;;;;;;;;;7.90;61.20;;;;;;5118346;27;19929;-73
2022/03/11 10:49:01;;;;;;;;;;;8.00;60.60;;;;;;5136319;27;19946;-70
2022/03/11 10:51:33;;;;;;;;;;;8.20;62.40;;;;;;5118315;27;20006;-69
2022/03/11 10:54:03;;;;;;;;;;;8.20;61.00;;;;;;5136317;27;19970;-71
2022/03/11 10:56:33;;;;;;;;;;;8.30;58.80;;;;;;5136345;27;20022;-69
2022/03/11 10:58:59;;;;;;;;;;;8.40;57.80;;;;;;5136147;27;20444;-71
2022/03/11 11:01:34;;;;;;;;;;;8.40;58.60;;;;;;5136133;27;20002;-72
2022/03/11 11:04:01;;;;;;;;;;;8.50;58.90;;;;;;5117887;27;19972;-69
2022/03/11 11:06:27;;;;;;;;;;;8.60;59.90;;;;;;5117914;27;19923;-69
2022/03/11 11:08:52;;;;;;;;;;;8.70;58.10;;;;;;5136090;27;19923;-69
2022/03/11 11:11:18;;;;;;;;;;;8.80;57.10;;;;;;5136087;27;19923;-69
2022/03/11 11:13:43;;;;;;;;;;;8.90;58.10;;;;;;5117856;27;20008;-71
2022/03/11 11:16:10;;;;;;;;;;;9.00;57.50;;;;;;5136010;27;19949;-70
2022/03/11 11:18:35;;;;;;;;;;;9.10;57.50;;;;;;5135856;27;19927;-73
2022/03/11 11:21:05;;;;;;;;;;;9.20;56.70;;;;;;5135247;27;19923;-71
2022/03/11 11:23:31;;;;;;;;;;;9.30;56.40;;;;;;5135746;27;19924;-69
2022/03/11 11:25:57;;;;;;;;;;;9.30;54.30;;;;;;5117454;27;19931;-72
2022/03/11 11:28:23;;;;;;;;;;;9.40;55.40;;;;;;5135691;27;19979;-70
2022/03/11 11:30:52;;;;;;;;;;;9.40;54.00;;;;;;5117366;27;20018;-72
2022/03/11 11:33:18;;;;;;;;;;;9.40;54.70;;;;;;5117393;27;19923;-70
2022/03/11 11:35:44;;;;;;;;;;;9.50;54.00;;;;;;5135696;27;19931;-71
2022/03/11 11:38:27;;;;;;;;;;;9.60;54.70;;;;;;5135589;27;19927;-70
2022/03/11 11:40:53;;;;;;;;;;;9.60;53.30;;;;;;5135368;27;20394;-70
2022/03/11 11:43:26;;;;;;;;;;;9.70;53.60;;;;;;5135408;27;19929;-69
2022/03/11 11:45:53;;;;;;;;;;;9.70;52.80;;;;;;5135248;27;19931;-70
2022/03/11 11:48:33;;;;;;;;;;;9.70;53.80;;;;;;5135498;27;20292;-70
2022/03/11 11:50:59;;;;;;;;;;;9.80;53.50;;;;;;5135266;27;19927;-71
2022/03/11 11:53:32;;;;;;;;;;;9.80;52.60;;;;;;5151205;27;20281;-73
2022/03/11 11:55:58;;;;;;;;;;;9.90;52.80;;;;;;5135119;27;19974;-71
2022/03/11 11:58:24;;;;;;;;;;;9.90;53.50;;;;;;5116992;27;19973;-71
2022/03/11 12:00:56;;;;;;;;;;;9.90;52.50;;;;;;5135181;27;20334;-70
2022/03/11 12:03:42;;;;;;;;;;;10.00;53.40;;;;;;5117070;27;19923;-70
2022/03/11 12:06:07;;;;;;;;;;;10.00;53.20;;;;;;5116746;27;19923;-69
2022/03/11 12:08:37;;;;;;;;;;;10.10;53.00;;;;;;5134894;27;20381;-70
2022/03/11 12:11:03;;;;;;;;;;;10.20;53.50;;;;;;5117016;27;19977;-70
2022/03/11 12:13:38;;;;;;;;;;;10.30;53.90;;;;;;5135029;27;19927;-69
2022/03/11 12:16:15;;;;;;;;;;;10.60;51.20;;;;;;5134726;27;19970;-70
2022/03/11 12:18:45;;;;;;;;;;;10.40;50.80;;;;;;5134730;27;20373;-72
2022/03/11 12:21:28;;;;;;;;;;;10.40;51.50;;;;;;5115943;27;20010;-70
2022/03/11 12:23:54;;;;;;;;;;;10.40;50.50;;;;;;5116659;27;19923;-69
2022/03/11 12:26:33;;;;;;;;;;;10.50;50.20;;;;;;5134844;27;19930;-70
2022/03/11 12:28:59;;;;;;;;;;;10.50;50.20;;;;;;5134759;28;20378;-70
2022/03/11 12:31:24;;;;;;;;;;;10.60;51.70;;;;;;5133839;27;19929;-70
2022/03/11 12:33:50;;;;;;;;;;;10.80;50.10;;;;;;5150849;27;20005;-70
2022/03/11 12:36:17;;;;;;;;;;;10.60;50.20;;;;;;5135062;28;20273;-73
2022/03/11 12:38:44;;;;;;;;;;;10.70;48.80;;;;;;5151007;27;19928;-70
2022/03/11 12:41:10;;;;;;;;;;;10.70;48.10;;;;;;5116623;28;19927;-71
2022/03/11 12:43:37;;;;;;;;;;;10.80;50.00;;;;;;5134470;28;19927;-70
2022/03/11 12:46:03;;;;;;;;;;;10.80;48.00;;;;;;5134506;28;19994;-71
2022/03/11 12:48:30;;;;;;;;;;;10.80;48.40;;;;;;5134475;28;19931;-72
2022/03/11 12:50:55;;;;;;;;;;;11.00;47.90;;;;;;5117693;28;19950;-69
2022/03/11 12:53:22;;;;;;;;;;;10.90;48.30;;;;;;5134605;28;20366;-70
2022/03/11 12:55:49;;;;;;;;;;;10.90;49.30;;;;;;5134430;28;19924;-71
2022/03/11 12:58:16;;;;;;;;;;;10.90;47.40;;;;;;5134481;28;19923;-69
2022/03/11 13:00:42;;;;;;;;;;;10.90;48.80;;;;;;5116383;28;19924;-70
2022/03/11 13:03:09;;;;;;;;;;;11.00;46.80;;;;;;5134459;28;19923;-71
2022/03/11 13:05:36;;;;;;;;;;;11.00;47.00;;;;;;5134207;28;19924;-69
2022/03/11 13:08:06;;;;;;;;;;;11.00;46.00;;;;;;5134319;28;20466;-70
2022/03/11 13:10:32;;;;;;;;;;;11.00;47.10;;;;;;5134357;28;19963;-72
2022/03/11 13:12:58;;;;;;;;;;;11.00;48.40;;;;;;5134430;28;19963;-70
2022/03/11 13:15:28;;;;;;;;;;;11.10;47.10;;;;;;5134354;28;19974;-72
2022/03/11 13:17:56;;;;;;;;;;;11.50;46.60;;;;;;5134108;28;19923;-70
2022/03/11 13:20:47;;;;;;;;;;;11.10;46.30;;;;;;5150357;27;19963;-70
2022/03/11 13:23:13;;;;;;;;;;;11.10;45.80;;;;;;5115941;28;19931;-70
2022/03/11 13:25:59;;;;;;;;;;;11.10;45.90;;;;;;5150162;27;20404;-69
2022/03/11 13:28:31;;;;;;;;;;;11.10;46.50;;;;;;5115550;28;19972;-70
2022/03/11 13:31:19;;;;;;;;;;;11.10;46.10;;;;;;5134318;28;19931;-70
2022/03/11 13:33:46;;;;;;;;;;;11.10;46.10;;;;;;5090979;28;20291;-73
2022/03/11 13:36:20;;;;;;;;;;;11.10;45.30;;;;;;5091097;28;19975;-72
2022/03/11 13:38:54;;;;;;;;;;;11.10;46.00;;;;;;5090898;28;19924;-73
2022/03/11 13:41:37;;;;;;;;;;;11.10;46.20;;;;;;5091016;28;19928;-70
2022/03/11 13:44:02;;;;;;;;;;;11.20;45.70;;;;;;5093573;28;19928;-70
2022/03/11 13:46:32;;;;;;;;;;;11.20;45.60;;;;;;5094574;28;19924;-70
2022/03/11 13:49:02;;;;;;;;;;;11.20;44.80;;;;;;5094546;28;20349;-70
2022/03/11 13:51:41;;;;;;;;;;;11.20;45.30;;;;;;5094356;28;19938;-71
2022/03/11 13:54:07;;;;;;;;;;;11.20;45.80;;;;;;5094302;28;19924;-69
2022/03/11 13:56:39;;;;;;;;;;;11.20;43.80;;;;;;5094287;28;19983;-71
2022/03/11 13:59:06;;;;;;;;;;;11.20;45.40;;;;;;5077604;28;19931;-70
2022/03/11 14:01:38;;;;;;;;;;;11.20;43.30;;;;;;5059963;28;19971;-71
2022/03/11 14:04:21;;;;;;;;;;;11.30;45.50;;;;;;5094095;28;20015;-70
2022/03/11 14:06:47;;;;;;;;;;;11.30;44.60;;;;;;5077525;28;19924;-72
2022/03/11 14:09:13;;;;;;;;;;;11.30;45.70;;;;;;5094012;28;19972;-70
2022/03/11 14:11:38;;;;;;;;;;;11.30;44.60;;;;;;5130707;27;20043;-68
2022/03/11 14:14:23;;;;;;;;;;;11.30;45.00;;;;;;5119120;27;20455;-70
2022/03/11 14:16:52;;;;;;;;;;;11.30;45.10;;;;;;5136946;27;19930;-70
2022/03/11 14:19:18;;;;;;;;;;;11.30;44.40;;;;;;5153371;27;20298;-70
2022/03/11 14:21:43;;;;;;;;;;;11.40;43.80;;;;;;5118976;27;19930;-70
2022/03/11 14:24:10;;;;;;;;;;;11.30;43.30;;;;;;5136949;27;19974;-70
2022/03/11 14:26:35;;;;;;;;;;;11.40;44.80;;;;;;5136930;27;19988;-69
2022/03/11 14:29:01;;;;;;;;;;;11.40;43.00;;;;;;5118797;27;19966;-70